sensor_id;sensor_type;location;lat;lon;timestamp;P1;durP1;ratioP1;P2;durP2;ratioP2
43702;SDS011;29304;56.146;40.396;2022-08-19T00:00:03;10.33;;;3.93;;
43702;SDS011;29304;56.146;40.396;2022-08-19T00:00:18;8.95;;;3.80;;
43702;SDS011;29304;56.146;40.396;2022-08-19T00:00:28;11.27;;;3.85;;
43702;SDS011;29304;56.146;40.396;2022-08-19T00:00:39;12.57;;;3.90;;
43702;SDS011;29304;56.146;40.396;2022-08-19T00:00:50;13.25;;;4.10;;
43702;SDS011;29304;56.146;40.396;2022-08-19T00:01:00;11.63;;;4.07;;
43702;SDS011;29304;56.146;40.396;2022-08-19T00:01:11;10.15;;;4.22;;
43702;SDS011;29304;56.146;40.396;2022-08-19T00:01:22;10.13;;;4.20;;
43702;SDS011;29304;56.146;40.396;2022-08-19T00:01:34;10.15;;;3.97;;
43702;SDS011;29304;56.146;40.396;2022-08-19T00:01:46;9.48;;;3.88;;
43702;SDS011;29304;56.146;40.396;2022-08-19T00:01:59;8.38;;;4.10;;
43702;SDS011;29304;56.146;40.396;2022-08-19T00:02:09;12.27;;;4.20;;
43702;SDS011;29304;56.146;40.396;2022-08-19T00:02:20;12.43;;;4.10;;
43702;SDS011;29304;56.146;40.396;2022-08-19T00:02:30;11.97;;;3.87;;
43702;SDS011;29304;56.146;40.396;2022-08-19T00:02:41;8.45;;;3.83;;
43702;SDS011;29304;56.146;40.396;2022-08-19T00:02:52;9.52;;;3.80;;
43702;SDS011;29304;56.146;40.396;2022-08-19T00:03:02;11.17;;;4.07;;
43702;SDS011;29304;56.146;40.396;2022-08-19T00:03:13;10.30;;;3.92;;
43702;SDS011;29304;56.146;40.396;2022-08-19T00:03:24;8.63;;;4.10;;
43702;SDS011;29304;56.146;40.396;2022-08-19T00:03:34;9.27;;;4.22;;
43702;SDS011;29304;56.146;40.396;2022-08-19T00:03:45;11.00;;;4.43;;
43702;SDS011;29304;56.146;40.396;2022-08-19T00:03:59;12.63;;;4.43;;
43702;SDS011;29304;56.146;40.396;2022-08-19T00:04:13;11.92;;;4.20;;
43702;SDS011;29304;56.146;40.396;2022-08-19T00:04:27;11.45;;;4.10;;
43702;SDS011;29304;56.146;40.396;2022-08-19T00:04:44;15.82;;;4.20;;
43702;SDS011;29304;56.146;40.396;2022-08-19T00:04:57;15.30;;;4.15;;
43702;SDS011;29304;56.146;40.396;2022-08-19T00:05:09;15.37;;;4.30;;
43702;SDS011;29304;56.146;40.396;2022-08-19T00:05:21;13.88;;;4.20;;
43702;SDS011;29304;56.146;40.396;2022-08-19T00:05:32;14.02;;;4.38;;
43702;SDS011;29304;56.146;40.396;2022-08-19T00:05:43;11.70;;;4.18;;
43702;SDS011;29304;56.146;40.396;2022-08-19T00:05:53;10.95;;;4.05;;
43702;SDS011;29304;56.146;40.396;2022-08-19T00:06:04;10.33;;;3.93;;
43702;SDS011;29304;56.146;40.396;2022-08-19T00:06:15;9.48;;;3.95;;
43702;SDS011;29304;56.146;40.396;2022-08-19T00:06:26;10.95;;;3.83;;
43702;SDS011;29304;56.146;40.396;2022-08-19T00:06:39;12.00;;;3.70;;
43702;SDS011;29304;56.146;40.396;2022-08-19T00:06:51;11.70;;;4.03;;
43702;SDS011;29304;56.146;40.396;2022-08-19T00:07:03;9.65;;;4.13;;
43702;SDS011;29304;56.146;40.396;2022-08-19T00:07:14;9.73;;;4.13;;
43702;SDS011;29304;56.146;40.396;2022-08-19T00:07:25;10.68;;;4.05;;
43702;SDS011;29304;56.146;40.396;2022-08-19T00:07:35;11.23;;;3.90;;
43702;SDS011;29304;56.146;40.396;2022-08-19T00:07:47;10.20;;;3.95;;
43702;SDS011;29304;56.146;40.396;2022-08-19T00:07:59;9.25;;;4.07;;
43702;SDS011;29304;56.146;40.396;2022-08-19T00:08:09;9.60;;;4.30;;
43702;SDS011;29304;56.146;40.396;2022-08-19T00:08:20;10.60;;;4.20;;
43702;SDS011;29304;56.146;40.396;2022-08-19T00:08:30;11.20;;;4.30;;
43702;SDS011;29304;56.146;40.396;2022-08-19T00:08:41;10.73;;;4.32;;
43702;SDS011;29304;56.146;40.396;2022-08-19T00:08:51;11.67;;;4.43;;
43702;SDS011;29304;56.146;40.396;2022-08-19T00:09:02;13.07;;;4.53;;
43702;SDS011;29304;56.146;40.396;2022-08-19T00:09:16;13.05;;;4.60;;
43702;SDS011;29304;56.146;40.396;2022-08-19T00:09:28;12.18;;;4.55;;
43702;SDS011;29304;56.146;40.396;2022-08-19T00:09:39;11.35;;;4.30;;
43702;SDS011;29304;56.146;40.396;2022-08-19T00:09:49;12.43;;;4.30;;
43702;SDS011;29304;56.146;40.396;2022-08-19T00:10:00;11.23;;;4.03;;
43702;SDS011;29304;56.146;40.396;2022-08-19T00:10:11;11.13;;;4.37;;
43702;SDS011;29304;56.146;40.396;2022-08-19T00:10:24;11.73;;;4.30;;
43702;SDS011;29304;56.146;40.396;2022-08-19T00:10:34;14.23;;;4.40;;
43702;SDS011;29304;56.146;40.396;2022-08-19T00:10:45;12.63;;;4.22;;
43702;SDS011;29304;56.146;40.396;2022-08-19T00:10:55;12.43;;;4.20;;
43702;SDS011;29304;56.146;40.396;2022-08-19T00:11:06;11.40;;;4.40;;
43702;SDS011;29304;56.146;40.396;2022-08-19T00:11:17;12.25;;;4.63;;
43702;SDS011;29304;56.146;40.396;2022-08-19T00:11:28;12.57;;;4.65;;
43702;SDS011;29304;56.146;40.396;2022-08-19T00:11:39;13.68;;;4.40;;
43702;SDS011;29304;56.146;40.396;2022-08-19T00:11:51;12.35;;;4.45;;
43702;SDS011;29304;56.146;40.396;2022-08-19T00:12:03;11.25;;;5.00;;
43702;SDS011;29304;56.146;40.396;2022-08-19T00:12:13;13.15;;;5.40;;
43702;SDS011;29304;56.146;40.396;2022-08-19T00:12:25;13.15;;;5.63;;
43702;SDS011;29304;56.146;40.396;2022-08-19T00:12:36;12.57;;;5.85;;
43702;SDS011;29304;56.146;40.396;2022-08-19T00:12:47;13.30;;;5.80;;
43702;SDS011;29304;56.146;40.396;2022-08-19T00:12:58;15.35;;;5.55;;
43702;SDS011;29304;56.146;40.396;2022-08-19T00:13:08;16.85;;;5.30;;
43702;SDS011;29304;56.146;40.396;2022-08-19T00:13:19;15.33;;;5.20;;
43702;SDS011;29304;56.146;40.396;2022-08-19T00:13:29;12.60;;;4.93;;
43702;SDS011;29304;56.146;40.396;2022-08-19T00:13:40;11.82;;;4.97;;
43702;SDS011;29304;56.146;40.396;2022-08-19T00:13:50;14.10;;;4.80;;
43702;SDS011;29304;56.146;40.396;2022-08-19T00:14:01;16.43;;;4.80;;
43702;SDS011;29304;56.146;40.396;2022-08-19T00:14:12;13.85;;;4.43;;
43702;SDS011;29304;56.146;40.396;2022-08-19T00:14:27;10.98;;;4.35;;
43702;SDS011;29304;56.146;40.396;2022-08-19T00:14:41;13.50;;;4.72;;
43702;SDS011;29304;56.146;40.396;2022-08-19T00:14:52;14.13;;;5.03;;
43702;SDS011;29304;56.146;40.396;2022-08-19T00:15:05;12.35;;;4.97;;
43702;SDS011;29304;56.146;40.396;2022-08-19T00:15:19;10.65;;;4.70;;
43702;SDS011;29304;56.146;40.396;2022-08-19T00:15:31;12.73;;;4.55;;
43702;SDS011;29304;56.146;40.396;2022-08-19T00:15:41;13.00;;;4.60;;
43702;SDS011;29304;56.146;40.396;2022-08-19T00:15:55;10.85;;;4.47;;
43702;SDS011;29304;56.146;40.396;2022-08-19T00:16:06;10.25;;;4.32;;
43702;SDS011;29304;56.146;40.396;2022-08-19T00:16:17;9.00;;;4.13;;
43702;SDS011;29304;56.146;40.396;2022-08-19T00:16:30;9.38;;;4.13;;
43702;SDS011;29304;56.146;40.396;2022-08-19T00:16:41;11.73;;;4.35;;
43702;SDS011;29304;56.146;40.396;2022-08-19T00:16:53;18.48;;;4.82;;
43702;SDS011;29304;56.146;40.396;2022-08-19T00:17:04;18.08;;;4.65;;
43702;SDS011;29304;56.146;40.396;2022-08-19T00:17:16;14.25;;;4.30;;
43702;SDS011;29304;56.146;40.396;2022-08-19T00:17:27;12.68;;;4.22;;
43702;SDS011;29304;56.146;40.396;2022-08-19T00:17:41;14.20;;;4.43;;
43702;SDS011;29304;56.146;40.396;2022-08-19T00:17:53;13.90;;;4.57;;
43702;SDS011;29304;56.146;40.396;2022-08-19T00:18:04;14.25;;;4.70;;
43702;SDS011;29304;56.146;40.396;2022-08-19T00:18:14;14.50;;;4.70;;
43702;SDS011;29304;56.146;40.396;2022-08-19T00:18:24;14.65;;;4.38;;
43702;SDS011;29304;56.146;40.396;2022-08-19T00:18:35;14.55;;;4.32;;
43702;SDS011;29304;56.146;40.396;2022-08-19T00:18:47;11.07;;;4.30;;
43702;SDS011;29304;56.146;40.396;2022-08-19T00:18:58;10.55;;;4.35;;
43702;SDS011;29304;56.146;40.396;2022-08-19T00:19:09;9.60;;;4.38;;
43702;SDS011;29304;56.146;40.396;2022-08-19T00:19:20;11.63;;;4.55;;
43702;SDS011;29304;56.146;40.396;2022-08-19T00:19:32;11.98;;;4.53;;
43702;SDS011;29304;56.146;40.396;2022-08-19T00:19:44;12.63;;;4.70;;
43702;SDS011;29304;56.146;40.396;2022-08-19T00:19:54;13.38;;;4.90;;
43702;SDS011;29304;56.146;40.396;2022-08-19T00:20:06;13.93;;;4.78;;
43702;SDS011;29304;56.146;40.396;2022-08-19T00:20:18;12.30;;;4.60;;
43702;SDS011;29304;56.146;40.396;2022-08-19T00:20:30;13.70;;;4.82;;
43702;SDS011;29304;56.146;40.396;2022-08-19T00:20:41;15.00;;;4.90;;
43702;SDS011;29304;56.146;40.396;2022-08-19T00:20:51;14.93;;;4.80;;
43702;SDS011;29304;56.146;40.396;2022-08-19T00:21:02;13.25;;;4.60;;
43702;SDS011;29304;56.146;40.396;2022-08-19T00:21:16;15.57;;;4.90;;
43702;SDS011;29304;56.146;40.396;2022-08-19T00:21:28;14.95;;;4.90;;
43702;SDS011;29304;56.146;40.396;2022-08-19T00:21:38;13.35;;;5.28;;
43702;SDS011;29304;56.146;40.396;2022-08-19T00:21:49;12.50;;;4.95;;
43702;SDS011;29304;56.146;40.396;2022-08-19T00:22:01;12.38;;;4.78;;
43702;SDS011;29304;56.146;40.396;2022-08-19T00:22:12;12.05;;;4.40;;
43702;SDS011;29304;56.146;40.396;2022-08-19T00:22:23;11.33;;;4.60;;
43702;SDS011;29304;56.146;40.396;2022-08-19T00:22:33;11.45;;;4.80;;
43702;SDS011;29304;56.146;40.396;2022-08-19T00:22:44;11.82;;;5.13;;
43702;SDS011;29304;56.146;40.396;2022-08-19T00:22:55;12.18;;;5.10;;
43702;SDS011;29304;56.146;40.396;2022-08-19T00:23:06;10.93;;;5.03;;
43702;SDS011;29304;56.146;40.396;2022-08-19T00:23:16;10.32;;;4.63;;
43702;SDS011;29304;56.146;40.396;2022-08-19T00:23:27;9.32;;;4.70;;
43702;SDS011;29304;56.146;40.396;2022-08-19T00:23:37;11.17;;;4.93;;
43702;SDS011;29304;56.146;40.396;2022-08-19T00:23:48;12.25;;;5.22;;
43702;SDS011;29304;56.146;40.396;2022-08-19T00:23:58;14.63;;;5.30;;
43702;SDS011;29304;56.146;40.396;2022-08-19T00:24:10;13.40;;;5.00;;
43702;SDS011;29304;56.146;40.396;2022-08-19T00:24:23;10.63;;;4.68;;
43702;SDS011;29304;56.146;40.396;2022-08-19T00:24:33;8.98;;;4.50;;
43702;SDS011;29304;56.146;40.396;2022-08-19T00:24:45;10.27;;;4.57;;
43702;SDS011;29304;56.146;40.396;2022-08-19T00:24:55;10.73;;;4.50;;
43702;SDS011;29304;56.146;40.396;2022-08-19T00:25:06;11.02;;;4.53;;
43702;SDS011;29304;56.146;40.396;2022-08-19T00:25:17;11.25;;;4.78;;
43702;SDS011;29304;56.146;40.396;2022-08-19T00:25:28;12.38;;;5.20;;
43702;SDS011;29304;56.146;40.396;2022-08-19T00:25:39;11.93;;;5.50;;
43702;SDS011;29304;56.146;40.396;2022-08-19T00:25:50;12.38;;;5.57;;
43702;SDS011;29304;56.146;40.396;2022-08-19T00:26:00;12.43;;;5.15;;
43702;SDS011;29304;56.146;40.396;2022-08-19T00:26:11;13.23;;;5.23;;
43702;SDS011;29304;56.146;40.396;2022-08-19T00:26:21;12.73;;;5.35;;
43702;SDS011;29304;56.146;40.396;2022-08-19T00:26:32;13.57;;;5.77;;
43702;SDS011;29304;56.146;40.396;2022-08-19T00:26:43;15.82;;;5.97;;
43702;SDS011;29304;56.146;40.396;2022-08-19T00:26:55;16.80;;;5.97;;
43702;SDS011;29304;56.146;40.396;2022-08-19T00:27:07;14.98;;;5.78;;
43702;SDS011;29304;56.146;40.396;2022-08-19T00:27:17;15.18;;;5.80;;
43702;SDS011;29304;56.146;40.396;2022-08-19T00:27:28;13.27;;;5.73;;
43702;SDS011;29304;56.146;40.396;2022-08-19T00:27:38;14.13;;;5.78;;
43702;SDS011;29304;56.146;40.396;2022-08-19T00:27:49;13.37;;;5.70;;
43702;SDS011;29304;56.146;40.396;2022-08-19T00:27:59;15.23;;;5.88;;
43702;SDS011;29304;56.146;40.396;2022-08-19T00:28:10;15.80;;;5.80;;
43702;SDS011;29304;56.146;40.396;2022-08-19T00:28:20;16.08;;;6.05;;
43702;SDS011;29304;56.146;40.396;2022-08-19T00:28:31;15.33;;;6.00;;
43702;SDS011;29304;56.146;40.396;2022-08-19T00:28:42;15.00;;;6.10;;
43702;SDS011;29304;56.146;40.396;2022-08-19T00:28:53;16.85;;;6.22;;
43702;SDS011;29304;56.146;40.396;2022-08-19T00:29:06;15.27;;;5.72;;
43702;SDS011;29304;56.146;40.396;2022-08-19T00:29:18;15.95;;;5.47;;
43702;SDS011;29304;56.146;40.396;2022-08-19T00:29:33;15.82;;;5.60;;
43702;SDS011;29304;56.146;40.396;2022-08-19T00:29:44;15.05;;;5.65;;
43702;SDS011;29304;56.146;40.396;2022-08-19T00:29:55;13.05;;;5.88;;
43702;SDS011;29304;56.146;40.396;2022-08-19T00:30:06;13.97;;;6.13;;
43702;SDS011;29304;56.146;40.396;2022-08-19T00:30:17;14.60;;;6.05;;
43702;SDS011;29304;56.146;40.396;2022-08-19T00:30:28;13.38;;;5.55;;
43702;SDS011;29304;56.146;40.396;2022-08-19T00:30:38;13.73;;;5.40;;
43702;SDS011;29304;56.146;40.396;2022-08-19T00:30:49;11.77;;;5.37;;
43702;SDS011;29304;56.146;40.396;2022-08-19T00:31:02;11.95;;;5.45;;
43702;SDS011;29304;56.146;40.396;2022-08-19T00:31:14;11.27;;;5.43;;
43702;SDS011;29304;56.146;40.396;2022-08-19T00:31:26;12.15;;;5.75;;
43702;SDS011;29304;56.146;40.396;2022-08-19T00:31:38;12.43;;;5.80;;
43702;SDS011;29304;56.146;40.396;2022-08-19T00:31:49;14.23;;;5.80;;
43702;SDS011;29304;56.146;40.396;2022-08-19T00:32:06;18.63;;;6.47;;
43702;SDS011;29304;56.146;40.396;2022-08-19T00:32:16;20.60;;;6.80;;
43702;SDS011;29304;56.146;40.396;2022-08-19T00:32:27;16.08;;;6.63;;
43702;SDS011;29304;56.146;40.396;2022-08-19T00:32:37;15.57;;;6.43;;
43702;SDS011;29304;56.146;40.396;2022-08-19T00:32:48;15.23;;;6.72;;
43702;SDS011;29304;56.146;40.396;2022-08-19T00:32:59;16.60;;;6.63;;
43702;SDS011;29304;56.146;40.396;2022-08-19T00:33:10;17.02;;;6.28;;
43702;SDS011;29304;56.146;40.396;2022-08-19T00:33:20;18.10;;;6.30;;
43702;SDS011;29304;56.146;40.396;2022-08-19T00:33:31;19.52;;;6.53;;
43702;SDS011;29304;56.146;40.396;2022-08-19T00:33:42;19.35;;;6.82;;
43702;SDS011;29304;56.146;40.396;2022-08-19T00:33:53;17.70;;;6.90;;
43702;SDS011;29304;56.146;40.396;2022-08-19T00:34:04;15.98;;;6.90;;
43702;SDS011;29304;56.146;40.396;2022-08-19T00:34:15;15.40;;;7.00;;
43702;SDS011;29304;56.146;40.396;2022-08-19T00:34:25;16.63;;;7.00;;
43702;SDS011;29304;56.146;40.396;2022-08-19T00:34:39;17.75;;;7.32;;
43702;SDS011;29304;56.146;40.396;2022-08-19T00:34:49;16.92;;;7.15;;
43702;SDS011;29304;56.146;40.396;2022-08-19T00:35:02;15.65;;;6.95;;
43702;SDS011;29304;56.146;40.396;2022-08-19T00:35:13;14.85;;;6.75;;
43702;SDS011;29304;56.146;40.396;2022-08-19T00:35:24;14.50;;;6.97;;
43702;SDS011;29304;56.146;40.396;2022-08-19T00:35:37;14.20;;;7.30;;
43702;SDS011;29304;56.146;40.396;2022-08-19T00:35:48;16.05;;;7.57;;
43702;SDS011;29304;56.146;40.396;2022-08-19T00:36:01;16.60;;;7.38;;
43702;SDS011;29304;56.146;40.396;2022-08-19T00:36:14;16.14;;;7.20;;
43702;SDS011;29304;56.146;40.396;2022-08-19T00:36:25;17.63;;;7.50;;
43702;SDS011;29304;56.146;40.396;2022-08-19T00:36:35;18.42;;;7.53;;
43702;SDS011;29304;56.146;40.396;2022-08-19T00:36:47;20.15;;;7.88;;
43702;SDS011;29304;56.146;40.396;2022-08-19T00:36:58;17.13;;;7.60;;
43702;SDS011;29304;56.146;40.396;2022-08-19T00:37:09;14.73;;;7.57;;
43702;SDS011;29304;56.146;40.396;2022-08-19T00:37:20;16.27;;;7.47;;
43702;SDS011;29304;56.146;40.396;2022-08-19T00:37:33;18.40;;;7.53;;
43702;SDS011;29304;56.146;40.396;2022-08-19T00:37:45;18.40;;;7.75;;
43702;SDS011;29304;56.146;40.396;2022-08-19T00:37:57;18.83;;;7.88;;
43702;SDS011;29304;56.146;40.396;2022-08-19T00:38:08;18.98;;;8.18;;
43702;SDS011;29304;56.146;40.396;2022-08-19T00:38:18;19.17;;;8.07;;
43702;SDS011;29304;56.146;40.396;2022-08-19T00:38:33;17.73;;;8.00;;
43702;SDS011;29304;56.146;40.396;2022-08-19T00:38:44;17.73;;;7.90;;
43702;SDS011;29304;56.146;40.396;2022-08-19T00:38:55;17.45;;;7.75;;
43702;SDS011;29304;56.146;40.396;2022-08-19T00:39:06;18.00;;;7.87;;
43702;SDS011;29304;56.146;40.396;2022-08-19T00:39:16;17.38;;;7.82;;
43702;SDS011;29304;56.146;40.396;2022-08-19T00:39:27;19.65;;;8.43;;
43702;SDS011;29304;56.146;40.396;2022-08-19T00:39:38;19.20;;;8.25;;
43702;SDS011;29304;56.146;40.396;2022-08-19T00:39:49;21.23;;;8.33;;
43702;SDS011;29304;56.146;40.396;2022-08-19T00:40:02;19.60;;;8.20;;
43702;SDS011;29304;56.146;40.396;2022-08-19T00:40:15;20.42;;;8.52;;
43702;SDS011;29304;56.146;40.396;2022-08-19T00:40:28;19.75;;;8.02;;
43702;SDS011;29304;56.146;40.396;2022-08-19T00:40:42;20.05;;;8.15;;
43702;SDS011;29304;56.146;40.396;2022-08-19T00:40:56;17.80;;;7.90;;
43702;SDS011;29304;56.146;40.396;2022-08-19T00:41:06;16.95;;;7.63;;
43702;SDS011;29304;56.146;40.396;2022-08-19T00:41:19;17.05;;;7.50;;
43702;SDS011;29304;56.146;40.396;2022-08-19T00:41:31;17.13;;;7.45;;
43702;SDS011;29304;56.146;40.396;2022-08-19T00:41:42;18.20;;;7.20;;
43702;SDS011;29304;56.146;40.396;2022-08-19T00:41:54;19.00;;;7.07;;
43702;SDS011;29304;56.146;40.396;2022-08-19T00:42:04;19.30;;;7.37;;
43702;SDS011;29304;56.146;40.396;2022-08-19T00:42:16;18.73;;;7.72;;
43702;SDS011;29304;56.146;40.396;2022-08-19T00:42:27;17.95;;;7.25;;
43702;SDS011;29304;56.146;40.396;2022-08-19T00:42:38;15.93;;;6.63;;
43702;SDS011;29304;56.146;40.396;2022-08-19T00:42:49;16.33;;;6.28;;
43702;SDS011;29304;56.146;40.396;2022-08-19T00:43:01;14.95;;;6.32;;
43702;SDS011;29304;56.146;40.396;2022-08-19T00:43:19;12.43;;;5.88;;
43702;SDS011;29304;56.146;40.396;2022-08-19T00:43:31;13.98;;;5.70;;
43702;SDS011;29304;56.146;40.396;2022-08-19T00:43:41;15.07;;;5.95;;
43702;SDS011;29304;56.146;40.396;2022-08-19T00:44:29;13.65;;;5.55;;
43702;SDS011;29304;56.146;40.396;2022-08-19T00:44:40;14.00;;;5.40;;
43702;SDS011;29304;56.146;40.396;2022-08-19T00:44:50;14.20;;;5.28;;
43702;SDS011;29304;56.146;40.396;2022-08-19T00:45:01;15.20;;;5.50;;
43702;SDS011;29304;56.146;40.396;2022-08-19T00:45:14;12.88;;;5.47;;
43702;SDS011;29304;56.146;40.396;2022-08-19T00:45:27;13.50;;;5.28;;
43702;SDS011;29304;56.146;40.396;2022-08-19T00:45:40;13.15;;;5.30;;
43702;SDS011;29304;56.146;40.396;2022-08-19T00:45:54;13.65;;;5.50;;
43702;SDS011;29304;56.146;40.396;2022-08-19T00:46:04;16.60;;;5.40;;
43702;SDS011;29304;56.146;40.396;2022-08-19T00:46:15;15.07;;;5.32;;
43702;SDS011;29304;56.146;40.396;2022-08-19T00:46:25;13.87;;;5.33;;
43702;SDS011;29304;56.146;40.396;2022-08-19T00:46:37;12.90;;;5.30;;
43702;SDS011;29304;56.146;40.396;2022-08-19T00:46:50;12.05;;;5.00;;
43702;SDS011;29304;56.146;40.396;2022-08-19T00:47:02;10.20;;;4.75;;
43702;SDS011;29304;56.146;40.396;2022-08-19T00:47:13;10.27;;;4.85;;
43702;SDS011;29304;56.146;40.396;2022-08-19T00:47:23;9.97;;;4.87;;
43702;SDS011;29304;56.146;40.396;2022-08-19T00:47:34;10.10;;;4.80;;
43702;SDS011;29304;56.146;40.396;2022-08-19T00:47:44;10.73;;;4.80;;
43702;SDS011;29304;56.146;40.396;2022-08-19T00:47:55;10.76;;;4.50;;
43702;SDS011;29304;56.146;40.396;2022-08-19T00:48:06;12.33;;;4.57;;
43702;SDS011;29304;56.146;40.396;2022-08-19T00:48:17;12.60;;;4.73;;
43702;SDS011;29304;56.146;40.396;2022-08-19T00:48:28;10.40;;;4.75;;
43702;SDS011;29304;56.146;40.396;2022-08-19T00:48:38;8.27;;;4.60;;
43702;SDS011;29304;56.146;40.396;2022-08-19T00:48:49;9.68;;;4.68;;
43702;SDS011;29304;56.146;40.396;2022-08-19T00:49:00;11.70;;;4.73;;
43702;SDS011;29304;56.146;40.396;2022-08-19T00:49:17;12.38;;;4.60;;
43702;SDS011;29304;56.146;40.396;2022-08-19T00:49:31;8.98;;;4.25;;
43702;SDS011;29304;56.146;40.396;2022-08-19T00:49:50;9.57;;;4.28;;
43702;SDS011;29304;56.146;40.396;2022-08-19T00:50:03;13.10;;;4.80;;
43702;SDS011;29304;56.146;40.396;2022-08-19T00:50:15;11.48;;;4.70;;
43702;SDS011;29304;56.146;40.396;2022-08-19T00:50:28;10.40;;;4.60;;
43702;SDS011;29304;56.146;40.396;2022-08-19T00:50:39;8.55;;;4.20;;
43702;SDS011;29304;56.146;40.396;2022-08-19T00:50:52;9.98;;;4.22;;
43702;SDS011;29304;56.146;40.396;2022-08-19T00:51:05;10.20;;;4.18;;
43702;SDS011;29304;56.146;40.396;2022-08-19T00:51:16;8.60;;;4.10;;
43702;SDS011;29304;56.146;40.396;2022-08-19T00:51:27;8.48;;;4.20;;
43702;SDS011;29304;56.146;40.396;2022-08-19T00:51:40;8.35;;;4.15;;
43702;SDS011;29304;56.146;40.396;2022-08-19T00:51:53;9.68;;;4.45;;
43702;SDS011;29304;56.146;40.396;2022-08-19T00:52:17;12.32;;;4.72;;
43702;SDS011;29304;56.146;40.396;2022-08-19T00:52:41;9.15;;;4.28;;
43702;SDS011;29304;56.146;40.396;2022-08-19T00:52:55;9.27;;;4.35;;
43702;SDS011;29304;56.146;40.396;2022-08-19T00:53:06;11.18;;;4.32;;
43702;SDS011;29304;56.146;40.396;2022-08-19T00:53:18;11.65;;;4.43;;
43702;SDS011;29304;56.146;40.396;2022-08-19T00:53:31;11.70;;;4.15;;
43702;SDS011;29304;56.146;40.396;2022-08-19T00:53:44;10.55;;;4.15;;
43702;SDS011;29304;56.146;40.396;2022-08-19T00:53:55;9.20;;;4.00;;
43702;SDS011;29304;56.146;40.396;2022-08-19T00:54:08;8.32;;;4.35;;
43702;SDS011;29304;56.146;40.396;2022-08-19T00:54:19;9.45;;;4.53;;
43702;SDS011;29304;56.146;40.396;2022-08-19T00:54:31;12.43;;;5.00;;
43702;SDS011;29304;56.146;40.396;2022-08-19T00:54:43;13.98;;;4.95;;
43702;SDS011;29304;56.146;40.396;2022-08-19T00:54:55;13.88;;;4.80;;
43702;SDS011;29304;56.146;40.396;2022-08-19T00:55:07;14.38;;;4.60;;
43702;SDS011;29304;56.146;40.396;2022-08-19T00:55:23;13.00;;;4.75;;
43702;SDS011;29304;56.146;40.396;2022-08-19T00:55:38;9.23;;;4.45;;
43702;SDS011;29304;56.146;40.396;2022-08-19T00:55:50;9.65;;;4.32;;
43702;SDS011;29304;56.146;40.396;2022-08-19T00:56:03;10.98;;;4.53;;
43702;SDS011;29304;56.146;40.396;2022-08-19T00:56:16;10.20;;;4.22;;
43702;SDS011;29304;56.146;40.396;2022-08-19T00:56:27;10.45;;;4.20;;
43702;SDS011;29304;56.146;40.396;2022-08-19T00:56:37;10.63;;;4.30;;
43702;SDS011;29304;56.146;40.396;2022-08-19T00:56:48;8.85;;;4.50;;
43702;SDS011;29304;56.146;40.396;2022-08-19T00:56:59;8.25;;;4.47;;
43702;SDS011;29304;56.146;40.396;2022-08-19T00:57:15;8.48;;;4.32;;
43702;SDS011;29304;56.146;40.396;2022-08-19T00:57:30;9.35;;;4.70;;
43702;SDS011;29304;56.146;40.396;2022-08-19T00:57:48;9.50;;;4.70;;
43702;SDS011;29304;56.146;40.396;2022-08-19T00:58:06;8.75;;;4.25;;
43702;SDS011;29304;56.146;40.396;2022-08-19T00:58:20;10.80;;;4.40;;
43702;SDS011;29304;56.146;40.396;2022-08-19T00:58:34;10.85;;;4.60;;
43702;SDS011;29304;56.146;40.396;2022-08-19T00:58:46;9.52;;;4.60;;
43702;SDS011;29304;56.146;40.396;2022-08-19T00:58:56;7.45;;;4.47;;
43702;SDS011;29304;56.146;40.396;2022-08-19T00:59:09;7.07;;;4.38;;
43702;SDS011;29304;56.146;40.396;2022-08-19T00:59:20;8.23;;;4.20;;
43702;SDS011;29304;56.146;40.396;2022-08-19T00:59:31;9.97;;;4.50;;
43702;SDS011;29304;56.146;40.396;2022-08-19T00:59:46;10.30;;;4.57;;
43702;SDS011;29304;56.146;40.396;2022-08-19T01:00:05;9.93;;;4.40;;
43702;SDS011;29304;56.146;40.396;2022-08-19T01:00:21;8.63;;;4.57;;
43702;SDS011;29304;56.146;40.396;2022-08-19T01:00:33;8.35;;;4.78;;
43702;SDS011;29304;56.146;40.396;2022-08-19T01:00:47;10.55;;;4.70;;
43702;SDS011;29304;56.146;40.396;2022-08-19T01:00:58;12.85;;;4.82;;
43702;SDS011;29304;56.146;40.396;2022-08-19T01:01:08;13.15;;;4.60;;
43702;SDS011;29304;56.146;40.396;2022-08-19T01:01:19;11.25;;;4.45;;
43702;SDS011;29304;56.146;40.396;2022-08-19T01:01:29;9.20;;;4.57;;
43702;SDS011;29304;56.146;40.396;2022-08-19T01:01:40;9.35;;;4.90;;
43702;SDS011;29304;56.146;40.396;2022-08-19T01:01:52;8.88;;;4.85;;
43702;SDS011;29304;56.146;40.396;2022-08-19T01:02:03;8.85;;;4.60;;
43702;SDS011;29304;56.146;40.396;2022-08-19T01:02:14;8.60;;;4.68;;
43702;SDS011;29304;56.146;40.396;2022-08-19T01:02:25;9.07;;;4.45;;
43702;SDS011;29304;56.146;40.396;2022-08-19T01:02:37;8.32;;;4.45;;
43702;SDS011;29304;56.146;40.396;2022-08-19T01:02:48;8.30;;;4.15;;
43702;SDS011;29304;56.146;40.396;2022-08-19T01:02:59;8.00;;;4.05;;
43702;SDS011;29304;56.146;40.396;2022-08-19T01:03:10;8.00;;;4.07;;
43702;SDS011;29304;56.146;40.396;2022-08-19T01:03:27;9.25;;;4.40;;
43702;SDS011;29304;56.146;40.396;2022-08-19T01:03:38;9.55;;;4.50;;
43702;SDS011;29304;56.146;40.396;2022-08-19T01:03:48;8.60;;;4.38;;
43702;SDS011;29304;56.146;40.396;2022-08-19T01:03:59;8.77;;;4.43;;
43702;SDS011;29304;56.146;40.396;2022-08-19T01:04:09;7.57;;;4.37;;
43702;SDS011;29304;56.146;40.396;2022-08-19T01:04:20;8.48;;;4.50;;
43702;SDS011;29304;56.146;40.396;2022-08-19T01:04:30;8.40;;;4.33;;
43702;SDS011;29304;56.146;40.396;2022-08-19T01:04:41;9.77;;;4.40;;
43702;SDS011;29304;56.146;40.396;2022-08-19T01:04:51;11.82;;;4.68;;
43702;SDS011;29304;56.146;40.396;2022-08-19T01:05:03;12.07;;;4.90;;
43702;SDS011;29304;56.146;40.396;2022-08-19T01:05:20;9.88;;;5.05;;
43702;SDS011;29304;56.146;40.396;2022-08-19T01:05:34;9.68;;;4.55;;
43702;SDS011;29304;56.146;40.396;2022-08-19T01:05:45;10.00;;;4.55;;
43702;SDS011;29304;56.146;40.396;2022-08-19T01:05:58;11.40;;;4.90;;
43702;SDS011;29304;56.146;40.396;2022-08-19T01:06:10;10.32;;;4.90;;
43702;SDS011;29304;56.146;40.396;2022-08-19T01:06:20;10.18;;;4.70;;
43702;SDS011;29304;56.146;40.396;2022-08-19T01:06:31;9.43;;;4.60;;
43702;SDS011;29304;56.146;40.396;2022-08-19T01:06:43;10.82;;;4.63;;
43702;SDS011;29304;56.146;40.396;2022-08-19T01:06:54;10.77;;;4.87;;
43702;SDS011;29304;56.146;40.396;2022-08-19T01:07:06;11.15;;;5.30;;
43702;SDS011;29304;56.146;40.396;2022-08-19T01:07:18;10.63;;;5.20;;
43702;SDS011;29304;56.146;40.396;2022-08-19T01:07:28;10.45;;;4.97;;
43702;SDS011;29304;56.146;40.396;2022-08-19T01:07:39;8.90;;;4.90;;
43702;SDS011;29304;56.146;40.396;2022-08-19T01:07:50;10.18;;;5.35;;
43702;SDS011;29304;56.146;40.396;2022-08-19T01:08:02;11.00;;;5.75;;
43702;SDS011;29304;56.146;40.396;2022-08-19T01:08:15;13.48;;;5.95;;
43702;SDS011;29304;56.146;40.396;2022-08-19T01:08:27;13.73;;;6.03;;
43702;SDS011;29304;56.146;40.396;2022-08-19T01:08:38;14.13;;;6.35;;
43702;SDS011;29304;56.146;40.396;2022-08-19T01:08:48;14.30;;;6.80;;
43702;SDS011;29304;56.146;40.396;2022-08-19T01:08:59;14.80;;;6.87;;
43702;SDS011;29304;56.146;40.396;2022-08-19T01:09:10;15.00;;;6.70;;
43702;SDS011;29304;56.146;40.396;2022-08-19T01:09:20;15.50;;;6.50;;